createdAt,value
2018-02-12T00:00:53.686Z,0.00
2018-02-12T00:01:53.679Z,0.00
2018-02-12T00:02:53.672Z,0.00
2018-02-12T00:03:53.664Z,0.00
2018-02-12T00:04:53.656Z,0.00
2018-02-12T00:05:53.650Z,0.00
2018-02-12T00:06:53.642Z,0.00
2018-02-12T00:07:53.634Z,0.00
2018-02-12T00:08:53.628Z,0.00
2018-02-12T00:09:53.621Z,0.00
2018-02-12T00:10:53.613Z,0.00
2018-02-12T00:11:53.605Z,0.00
2018-02-12T00:12:53.600Z,0.00
2018-02-12T00:13:53.593Z,0.00
2018-02-12T00:14:53.585Z,0.00
2018-02-12T00:15:53.577Z,0.00
2018-02-12T00:16:53.571Z,0.00
2018-02-12T00:17:53.563Z,0.00
2018-02-12T00:18:53.595Z,0.00
2018-02-12T00:19:53.550Z,0.00
2018-02-12T00:20:53.543Z,0.00
2018-02-12T00:21:53.537Z,0.00
2018-02-12T00:22:53.527Z,0.00
2018-02-12T00:23:53.521Z,0.00
2018-02-12T00:24:53.514Z,0.00
2018-02-12T00:25:53.507Z,0.00
2018-02-12T00:26:53.499Z,0.00
2018-02-12T00:27:53.492Z,0.00
2018-02-12T00:28:53.530Z,0.00
2018-02-12T00:29:53.478Z,0.00
2018-02-12T00:30:53.470Z,0.00
2018-02-12T00:31:53.464Z,0.00
2018-02-12T00:32:53.457Z,0.00
2018-02-12T00:33:53.450Z,0.00
2018-02-12T00:34:53.442Z,0.00
2018-02-12T00:35:53.435Z,0.00
2018-02-12T00:36:53.430Z,0.00
2018-02-12T00:37:53.423Z,0.00
2018-02-12T00:38:53.416Z,0.00
2018-02-12T00:39:53.409Z,0.00
2018-02-12T00:40:53.403Z,0.00
2018-02-12T00:41:53.395Z,0.00
2018-02-12T00:42:53.387Z,0.00
2018-02-12T00:43:53.382Z,0.00
2018-02-12T00:44:53.379Z,0.00
2018-02-12T00:45:53.368Z,0.00
2018-02-12T00:46:53.360Z,0.00
2018-02-12T00:47:53.353Z,0.00
2018-02-12T00:48:53.347Z,0.00
2018-02-12T00:49:53.340Z,0.00
2018-02-12T00:50:53.333Z,0.00
2018-02-12T00:51:53.326Z,0.00
2018-02-12T00:52:53.321Z,0.00
2018-02-12T00:53:53.315Z,0.00
2018-02-12T00:54:53.306Z,0.00
2018-02-12T00:55:53.300Z,0.00
2018-02-12T00:56:53.293Z,0.00
2018-02-12T00:57:53.287Z,0.00
2018-02-12T00:58:53.280Z,0.00
2018-02-12T00:59:53.274Z,0.00
2018-02-12T01:00:53.267Z,0.00
2018-02-12T01:01:53.262Z,0.00
2018-02-12T01:02:53.255Z,0.00
2018-02-12T01:03:53.247Z,0.00
2018-02-12T01:04:53.241Z,0.00
2018-02-12T01:05:53.235Z,0.00
2018-02-12T01:06:53.227Z,0.00
2018-02-12T01:07:53.220Z,0.00
2018-02-12T01:08:53.215Z,0.00
2018-02-12T01:09:53.208Z,0.00
2018-02-12T01:10:53.200Z,0.00
2018-02-12T01:11:53.194Z,0.00
2018-02-12T01:12:53.186Z,0.00
2018-02-12T01:13:53.179Z,0.00
2018-02-12T01:14:53.173Z,0.00
2018-02-12T01:15:53.166Z,0.00
2018-02-12T01:16:53.159Z,0.00
2018-02-12T01:17:53.154Z,0.00
2018-02-12T01:18:53.147Z,0.00
2018-02-12T01:19:53.140Z,0.00
2018-02-12T01:20:53.133Z,0.00
2018-02-12T01:21:53.127Z,0.00
2018-02-12T01:22:53.120Z,0.00
2018-02-12T01:23:53.113Z,0.00
2018-02-12T01:24:53.106Z,0.00
2018-02-12T01:25:53.101Z,0.00
2018-02-12T01:26:53.093Z,0.00
2018-02-12T01:27:53.087Z,0.00
2018-02-12T01:28:53.080Z,0.00
2018-02-12T01:29:53.074Z,0.00
2018-02-12T01:30:53.066Z,0.00
2018-02-12T01:31:53.062Z,0.00
2018-02-12T01:32:53.054Z,0.00
2018-02-12T01:33:53.048Z,0.00
2018-02-12T01:34:53.040Z,0.00
2018-02-12T01:35:53.033Z,0.00
2018-02-12T01:36:53.027Z,0.00
2018-02-12T01:37:53.022Z,0.00
2018-02-12T01:38:53.014Z,0.00
2018-02-12T01:39:53.007Z,0.00
2018-02-12T01:41:53.039Z,0.00
2018-02-12T01:42:52.988Z,0.00
2018-02-12T01:43:52.980Z,0.00
2018-02-12T01:44:52.975Z,0.00
2018-02-12T01:45:52.970Z,0.00
2018-02-12T01:46:52.966Z,0.00
2018-02-12T01:47:52.955Z,0.00
2018-02-12T01:48:52.948Z,0.00
2018-02-12T01:49:52.942Z,0.00
2018-02-12T01:50:52.936Z,0.00
2018-02-12T01:51:52.928Z,0.00
2018-02-12T01:52:52.921Z,0.00
2018-02-12T01:53:52.915Z,0.00
2018-02-12T01:54:52.906Z,0.00
2018-02-12T01:55:52.900Z,0.00
2018-02-12T01:56:52.894Z,0.00
2018-02-12T01:57:52.889Z,0.00
2018-02-12T01:58:52.882Z,0.00
2018-02-12T01:59:52.875Z,0.00
2018-02-12T02:00:52.869Z,0.00
2018-02-12T02:01:52.867Z,0.00
2018-02-12T02:02:52.893Z,0.00
2018-02-12T02:03:52.849Z,0.00
2018-02-12T02:04:52.842Z,0.00
2018-02-12T02:05:52.835Z,0.00
2018-02-12T02:06:52.828Z,0.00
2018-02-12T02:07:52.821Z,0.00
2018-02-12T02:08:52.815Z,0.00
2018-02-12T02:09:52.809Z,0.00
2018-02-12T02:10:52.801Z,0.00
2018-02-12T02:11:52.794Z,0.00
2018-02-12T02:12:52.788Z,0.00
2018-02-12T02:13:52.783Z,0.00
2018-02-12T02:14:52.774Z,0.00
2018-02-12T02:15:52.768Z,0.00
2018-02-12T02:16:52.763Z,0.00
2018-02-12T02:17:52.756Z,0.00
2018-02-12T02:18:52.748Z,0.00
2018-02-12T02:19:52.742Z,0.00
2018-02-12T02:20:52.735Z,0.00
2018-02-12T02:21:52.728Z,0.00
2018-02-12T02:22:52.721Z,0.00
2018-02-12T02:23:52.715Z,0.00
2018-02-12T02:24:52.709Z,0.00
2018-02-12T02:25:52.703Z,0.00
2018-02-12T02:26:52.694Z,0.00
2018-02-12T02:27:52.687Z,0.00
2018-02-12T02:28:52.681Z,0.00
2018-02-12T02:29:52.679Z,0.00
2018-02-12T02:30:52.667Z,0.00
2018-02-12T02:31:52.660Z,0.00
2018-02-12T02:32:52.654Z,0.00
2018-02-12T02:33:52.649Z,0.00
2018-02-12T02:34:52.640Z,0.00
2018-02-12T02:35:52.633Z,0.00
2018-02-12T02:36:52.627Z,0.00
2018-02-12T02:37:52.621Z,0.00
2018-02-12T02:38:52.613Z,0.00
2018-02-12T02:39:52.606Z,0.00
2018-02-12T02:40:52.600Z,0.00
2018-02-12T02:41:52.593Z,0.00
2018-02-12T02:42:52.586Z,0.00
2018-02-12T02:43:52.578Z,0.00
2018-02-12T02:44:52.573Z,0.00
2018-02-12T02:45:52.567Z,0.00
2018-02-12T02:46:52.559Z,0.00
2018-02-12T02:47:52.553Z,0.00
2018-02-12T02:48:52.545Z,0.00
2018-02-12T02:49:52.541Z,0.00
2018-02-12T02:50:52.532Z,0.00
2018-02-12T02:51:52.525Z,0.00
2018-02-12T02:52:52.517Z,0.00
2018-02-12T02:53:52.512Z,0.00
2018-02-12T02:54:52.504Z,0.00
2018-02-12T02:55:52.504Z,0.00
2018-02-12T02:56:52.490Z,0.00
2018-02-12T02:57:52.484Z,0.00
2018-02-12T02:58:52.476Z,0.00
2018-02-12T02:59:52.470Z,0.00
2018-02-12T03:00:52.463Z,0.00
2018-02-12T03:01:52.456Z,0.00
2018-02-12T03:02:52.448Z,0.00
2018-02-12T03:03:52.441Z,0.00
2018-02-12T03:04:52.434Z,0.00
2018-02-12T03:05:52.429Z,0.00
2018-02-12T03:06:52.421Z,0.00
2018-02-12T03:07:52.414Z,0.00
2018-02-12T03:08:52.409Z,0.00
2018-02-12T03:09:52.403Z,0.00
2018-02-12T03:10:52.394Z,0.00
2018-02-12T03:11:52.388Z,0.00
2018-02-12T03:12:52.381Z,0.00
2018-02-12T03:13:52.375Z,0.00
2018-02-12T03:14:52.367Z,0.00
2018-02-12T03:15:52.360Z,0.00
2018-02-12T03:16:52.354Z,0.00
2018-02-12T03:17:52.348Z,0.00
2018-02-12T03:18:52.339Z,0.00
2018-02-12T03:19:52.333Z,0.00
2018-02-12T03:20:52.325Z,0.00
2018-02-12T03:21:52.320Z,0.00
2018-02-12T03:22:52.312Z,0.00
2018-02-12T03:23:52.304Z,0.00
2018-02-12T03:24:52.298Z,0.00
2018-02-12T03:25:52.291Z,0.00
2018-02-12T03:26:52.283Z,0.00
2018-02-12T03:27:52.276Z,0.00
2018-02-12T03:28:52.271Z,0.00
2018-02-12T03:29:52.264Z,0.00
2018-02-12T03:30:52.257Z,0.00
2018-02-12T03:31:52.249Z,0.00
2018-02-12T03:32:52.244Z,0.00
2018-02-12T03:33:52.236Z,0.00
2018-02-12T03:34:52.229Z,0.00
2018-02-12T03:35:52.222Z,0.00
2018-02-12T03:36:52.216Z,0.00
2018-02-12T03:37:52.209Z,0.00
2018-02-12T03:38:52.201Z,0.00
2018-02-12T03:39:52.194Z,0.00
2018-02-12T03:40:52.187Z,0.00
2018-02-12T03:41:52.181Z,0.00
2018-02-12T03:42:52.173Z,0.00
2018-02-12T03:43:52.166Z,0.00
2018-02-12T03:44:52.162Z,0.00
2018-02-12T03:45:52.152Z,0.00
2018-02-12T03:46:52.145Z,0.00
2018-02-12T03:47:52.138Z,0.00
2018-02-12T03:48:52.131Z,0.00
2018-02-12T03:49:52.125Z,0.00
2018-02-12T03:50:52.119Z,0.00
2018-02-12T03:51:52.109Z,0.00
2018-02-12T03:52:52.103Z,0.00
2018-02-12T03:53:52.097Z,0.00
2018-02-12T03:54:52.089Z,0.00
2018-02-12T03:55:52.083Z,0.00
2018-02-12T03:56:52.076Z,0.00
2018-02-12T03:57:52.069Z,0.00
2018-02-12T03:58:52.061Z,0.00
2018-02-12T03:59:52.054Z,0.00
2018-02-12T04:00:52.048Z,0.00
2018-02-12T04:01:52.041Z,0.00
2018-02-12T04:02:52.033Z,0.00
2018-02-12T04:03:52.025Z,0.00
2018-02-12T04:04:52.021Z,0.00
2018-02-12T04:05:52.011Z,0.00
2018-02-12T04:06:52.006Z,0.00
2018-02-12T04:07:51.998Z,0.00
2018-02-12T04:08:51.989Z,0.00
2018-02-12T04:09:51.983Z,0.00
2018-02-12T04:10:51.976Z,0.00
2018-02-12T04:11:51.968Z,0.00
2018-02-12T04:12:51.963Z,0.00
2018-02-12T04:13:51.954Z,0.00
2018-02-12T04:14:51.950Z,0.00
2018-02-12T04:15:51.939Z,0.00
2018-02-12T04:16:51.932Z,0.00
2018-02-12T04:17:51.927Z,0.00
2018-02-12T04:18:51.919Z,0.00
2018-02-12T04:19:51.913Z,0.00
2018-02-12T04:20:51.905Z,0.00
2018-02-12T04:21:51.898Z,0.00
2018-02-12T04:22:51.891Z,0.00
2018-02-12T04:23:51.884Z,0.00
2018-02-12T04:24:51.930Z,0.00
2018-02-12T04:25:51.871Z,0.00
2018-02-12T04:26:51.863Z,0.00
2018-02-12T04:27:51.856Z,0.00
2018-02-12T04:28:51.849Z,0.00
2018-02-12T04:29:51.841Z,0.00
2018-02-12T04:30:51.833Z,0.00
2018-02-12T04:31:51.830Z,0.00
2018-02-12T04:32:51.821Z,0.00
2018-02-12T04:33:51.814Z,0.00
2018-02-12T04:34:51.806Z,0.00
2018-02-12T04:35:51.799Z,0.00
2018-02-12T04:36:51.796Z,0.00
2018-02-12T04:37:51.785Z,0.00
2018-02-12T04:38:51.778Z,0.00
2018-02-12T04:39:51.770Z,0.00
2018-02-12T04:40:51.764Z,0.00
2018-02-12T04:41:51.757Z,0.00
2018-02-12T04:42:51.749Z,0.00
2018-02-12T04:43:51.742Z,0.00
2018-02-12T04:44:51.735Z,0.00
2018-02-12T04:45:51.728Z,0.00
2018-02-12T04:46:51.721Z,0.00
2018-02-12T04:47:51.716Z,0.00
2018-02-12T04:48:51.709Z,0.00
2018-02-12T04:49:51.703Z,0.00
2018-02-12T04:50:51.692Z,0.00
2018-02-12T04:51:51.687Z,0.00
2018-02-12T04:52:51.680Z,0.00
2018-02-12T04:53:51.672Z,0.00
2018-02-12T04:54:51.666Z,0.00
2018-02-12T04:55:51.658Z,0.00
2018-02-12T04:56:51.653Z,0.00
2018-02-12T04:57:51.644Z,0.00
2018-02-12T04:58:51.638Z,0.00
2018-02-12T04:59:51.631Z,0.00
2018-02-12T05:00:51.624Z,0.00
2018-02-12T05:01:51.619Z,0.00
2018-02-12T05:02:51.610Z,0.00
2018-02-12T05:03:51.602Z,0.00
2018-02-12T05:04:51.596Z,0.00
2018-02-12T05:05:51.590Z,0.00
2018-02-12T05:06:51.581Z,0.00
2018-02-12T05:07:51.574Z,0.00
2018-02-12T05:08:51.567Z,0.00
2018-02-12T05:09:51.561Z,0.00
2018-02-12T05:10:51.553Z,0.00
2018-02-12T05:11:51.549Z,0.00
2018-02-12T05:12:51.540Z,0.00
2018-02-12T05:13:51.533Z,0.00
2018-02-12T05:14:51.526Z,0.00
2018-02-12T05:15:51.520Z,0.00
2018-02-12T05:16:51.514Z,0.00
2018-02-12T05:17:51.519Z,0.00
2018-02-12T05:18:51.499Z,0.00
2018-02-12T05:19:51.492Z,0.00
2018-02-12T05:20:51.485Z,0.00
2018-02-12T05:21:51.483Z,0.00
2018-02-12T05:22:51.471Z,0.00
2018-02-12T05:23:51.463Z,0.00
2018-02-12T05:24:51.458Z,0.00
2018-02-12T05:25:51.451Z,0.00
2018-02-12T05:26:51.443Z,0.00
2018-02-12T05:27:51.436Z,0.00
2018-02-12T05:28:51.429Z,0.00
2018-02-12T05:29:51.423Z,0.00
2018-02-12T05:30:51.415Z,0.00
2018-02-12T05:31:51.407Z,0.00
2018-02-12T05:32:51.402Z,0.00
2018-02-12T05:33:51.395Z,0.00
2018-02-12T05:34:51.387Z,0.00
2018-02-12T05:35:51.380Z,0.00
2018-02-12T05:36:51.373Z,0.00
2018-02-12T05:37:51.367Z,0.00
2018-02-12T05:38:51.360Z,0.00
2018-02-12T05:39:51.353Z,0.00
2018-02-12T05:40:51.346Z,0.00
2018-02-12T05:41:51.340Z,0.00
2018-02-12T05:42:51.335Z,0.00
2018-02-12T05:43:51.326Z,0.00
2018-02-12T05:44:51.320Z,0.00
2018-02-12T05:45:51.312Z,0.00
2018-02-12T05:46:51.304Z,0.00
2018-02-12T05:47:51.298Z,0.00
2018-02-12T05:48:51.291Z,0.00
2018-02-12T05:49:51.283Z,0.00
2018-02-12T05:50:51.276Z,0.00
2018-02-12T05:51:51.269Z,0.00
2018-02-12T05:52:51.263Z,0.00
2018-02-12T05:53:51.259Z,0.00
2018-02-12T05:54:51.248Z,0.00
2018-02-12T05:55:51.242Z,0.00
2018-02-12T05:56:51.235Z,0.00
2018-02-12T05:57:51.228Z,0.00
2018-02-12T05:58:51.264Z,0.00
2018-02-12T05:59:51.214Z,0.00
2018-02-12T06:00:51.208Z,0.00
2018-02-12T06:01:51.203Z,0.00
2018-02-12T06:02:51.194Z,0.00
2018-02-12T06:03:51.187Z,0.00
2018-02-12T06:04:51.180Z,0.00
2018-02-12T06:05:51.173Z,0.00
2018-02-12T06:06:51.166Z,0.00
2018-02-12T06:07:51.158Z,0.00
2018-02-12T06:08:51.154Z,4.00
2018-02-12T06:09:51.145Z,4.00
2018-02-12T06:10:51.137Z,0.00
2018-02-12T06:11:51.131Z,4.00
2018-02-12T06:12:51.122Z,4.00
2018-02-12T06:13:51.116Z,4.00
2018-02-12T06:14:51.107Z,8.00
2018-02-12T06:15:51.100Z,8.00
2018-02-12T06:16:51.092Z,12.00
2018-02-12T06:17:51.085Z,16.00
2018-02-12T06:18:51.081Z,12.00
2018-02-12T06:19:51.069Z,20.00
2018-02-12T06:20:51.063Z,24.00
2018-02-12T06:21:51.055Z,28.00
2018-02-12T06:22:51.047Z,32.00
2018-02-12T06:23:51.040Z,36.00
2018-02-12T06:24:51.032Z,44.00
2018-02-12T06:25:51.025Z,48.00
2018-02-12T06:26:51.015Z,56.00
2018-02-12T06:27:51.009Z,64.00
2018-02-12T06:28:51.000Z,72.00
2018-02-12T06:29:50.992Z,76.00
2018-02-12T06:30:50.985Z,76.00
2018-02-12T06:31:50.978Z,76.00
2018-02-12T06:32:50.969Z,72.00
2018-02-12T06:33:50.962Z,76.00
2018-02-12T06:34:50.953Z,76.00
2018-02-12T06:35:50.945Z,80.00
2018-02-12T06:36:50.936Z,72.00
2018-02-12T06:37:50.935Z,72.00
2018-02-12T06:38:50.922Z,80.00
2018-02-12T06:39:50.913Z,84.00
2018-02-12T06:40:50.909Z,92.00
2018-02-12T06:41:50.899Z,100.00
2018-02-12T06:42:50.889Z,112.00
2018-02-12T06:43:50.882Z,124.00
2018-02-12T06:44:50.874Z,132.00
2018-02-12T06:45:50.867Z,136.00
2018-02-12T06:46:50.886Z,140.00
2018-02-12T06:47:50.850Z,148.00
2018-02-12T06:48:50.843Z,168.00
2018-02-12T06:49:50.835Z,180.00
2018-02-12T06:50:50.826Z,180.00
2018-02-12T06:51:50.816Z,180.00
2018-02-12T06:52:50.810Z,192.00
2018-02-12T06:53:50.803Z,232.00
2018-02-12T06:54:50.794Z,256.00
2018-02-12T06:55:50.786Z,300.00
2018-02-12T06:56:50.779Z,332.00
2018-02-12T06:57:50.777Z,348.00
2018-02-12T06:58:50.762Z,400.00
2018-02-12T06:59:50.754Z,416.00
2018-02-12T07:00:50.745Z,452.00
2018-02-12T07:01:50.739Z,508.00
2018-02-12T07:02:50.729Z,536.00
2018-02-12T07:03:50.722Z,556.00
2018-02-12T07:04:50.723Z,552.00
2018-02-12T07:05:50.706Z,520.00
2018-02-12T07:06:50.699Z,492.00
2018-02-12T07:07:50.689Z,504.00
2018-02-12T07:08:50.683Z,520.00
2018-02-12T07:09:50.675Z,540.00
2018-02-12T07:10:50.665Z,564.00
2018-02-12T07:11:50.662Z,556.00
2018-02-12T07:12:50.651Z,648.00
2018-02-12T07:13:50.644Z,744.00
2018-02-12T07:14:50.634Z,800.00
2018-02-12T07:15:50.625Z,824.00
2018-02-12T07:16:50.617Z,884.00
2018-02-12T07:17:50.611Z,984.00
2018-02-12T07:18:50.600Z,1036.00
2018-02-12T07:19:50.594Z,1048.00
2018-02-12T07:20:50.586Z,1068.00
2018-02-12T07:21:50.579Z,1056.00
2018-02-12T07:22:50.570Z,1012.00
2018-02-12T07:23:50.562Z,1028.00
2018-02-12T07:24:50.557Z,1060.00
2018-02-12T07:25:50.548Z,1080.00
2018-02-12T07:26:50.538Z,1096.00
2018-02-12T07:27:50.530Z,1080.00
2018-02-12T07:28:50.522Z,1108.00
2018-02-12T07:29:50.515Z,1192.00
2018-02-12T07:30:50.505Z,1308.00
2018-02-12T07:31:50.496Z,1380.00
2018-02-12T07:32:50.489Z,1396.00
2018-02-12T07:33:50.481Z,1384.00
2018-02-12T07:34:50.473Z,1348.00
2018-02-12T07:35:50.464Z,1320.00
2018-02-12T07:36:50.458Z,1312.00
2018-02-12T07:37:50.450Z,1272.00
2018-02-12T07:38:50.442Z,1208.00
2018-02-12T07:39:50.434Z,1352.00
2018-02-12T07:40:50.429Z,1560.00
2018-02-12T07:41:50.418Z,1688.00
2018-02-12T07:42:50.412Z,1772.00
2018-02-12T07:43:50.402Z,1840.00
2018-02-12T07:44:50.394Z,1916.00
2018-02-12T07:45:50.388Z,1988.00
2018-02-12T07:46:50.380Z,2056.00
2018-02-12T07:47:50.372Z,2120.00
2018-02-12T07:48:50.366Z,2180.00
2018-02-12T07:49:50.356Z,2256.00
2018-02-12T07:50:50.352Z,2320.00
2018-02-12T07:51:50.342Z,2328.00
2018-02-12T07:52:50.334Z,2304.00
2018-02-12T07:53:50.328Z,2248.00
2018-02-12T07:54:50.319Z,2156.00
2018-02-12T07:55:50.313Z,2088.00
2018-02-12T07:56:50.307Z,2032.00
2018-02-12T07:57:50.299Z,2000.00
2018-02-12T07:58:50.290Z,1988.00
2018-02-12T07:59:50.283Z,1956.00
2018-02-12T08:00:50.277Z,1920.00
2018-02-12T08:01:50.271Z,1908.00
2018-02-12T08:02:50.262Z,1944.00
2018-02-12T08:03:50.255Z,2028.00
2018-02-12T08:04:50.248Z,2084.00
2018-02-12T08:05:50.241Z,2160.00
2018-02-12T08:06:50.233Z,2252.00
2018-02-12T08:07:50.226Z,2292.00
2018-02-12T08:08:50.218Z,2316.00
2018-02-12T08:09:50.211Z,2388.00
2018-02-12T08:10:50.204Z,2532.00
2018-02-12T08:11:50.198Z,2532.00
2018-02-12T08:12:50.190Z,2348.00
2018-02-12T08:13:50.186Z,2056.00
2018-02-12T08:14:50.175Z,1772.00
2018-02-12T08:15:50.168Z,1532.00
2018-02-12T08:16:50.162Z,1424.00
2018-02-12T08:17:50.157Z,1376.00
2018-02-12T08:18:50.147Z,1356.00
2018-02-12T08:19:50.139Z,1356.00
2018-02-12T08:20:50.132Z,1352.00
2018-02-12T08:21:50.126Z,1376.00
2018-02-12T08:22:50.118Z,1344.00
2018-02-12T08:23:50.111Z,1332.00
2018-02-12T08:24:50.103Z,1436.00
2018-02-12T08:25:50.096Z,1612.00
2018-02-12T08:26:50.091Z,1712.00
2018-02-12T08:27:50.085Z,1724.00
2018-02-12T08:28:50.074Z,1748.00
2018-02-12T08:29:50.069Z,1812.00
2018-02-12T08:30:50.060Z,1908.00
2018-02-12T08:31:50.052Z,1956.00
2018-02-12T08:32:50.048Z,1944.00
2018-02-12T08:33:50.039Z,1852.00
2018-02-12T08:34:50.032Z,1804.00
2018-02-12T08:35:50.026Z,1708.00
2018-02-12T08:36:50.019Z,1588.00
2018-02-12T08:37:50.012Z,1468.00
2018-02-12T08:38:50.003Z,1288.00
2018-02-12T08:39:50.434Z,1124.00
2018-02-12T08:40:49.990Z,968.00
2018-02-12T08:41:49.981Z,1068.00
2018-02-12T08:42:49.977Z,1168.00
2018-02-12T08:43:49.968Z,1144.00
2018-02-12T08:44:50.008Z,1060.00
2018-02-12T08:45:49.953Z,1072.00
2018-02-12T08:46:49.946Z,1124.00
2018-02-12T08:47:49.938Z,1148.00
2018-02-12T08:48:49.930Z,1156.00
2018-02-12T08:49:49.925Z,1160.00
2018-02-12T08:50:49.915Z,1164.00
2018-02-12T08:51:49.909Z,1164.00
2018-02-12T08:52:49.902Z,1180.00
2018-02-12T08:53:49.894Z,1180.00
2018-02-12T08:54:49.886Z,1184.00
2018-02-12T08:55:49.879Z,1404.00
2018-02-12T08:56:49.870Z,1924.00
2018-02-12T08:57:49.863Z,2316.00
2018-02-12T08:58:49.855Z,2568.00
2018-02-12T08:59:49.848Z,2588.00
2018-02-12T09:00:49.840Z,2356.00
2018-02-12T09:01:49.832Z,2632.00
2018-02-12T09:02:49.824Z,3036.00
2018-02-12T09:03:49.817Z,3224.00
2018-02-12T09:04:49.810Z,3232.00
2018-02-12T09:05:49.801Z,2956.00
2018-02-12T09:06:49.793Z,3068.00
2018-02-12T09:07:49.785Z,3476.00
2018-02-12T09:08:49.776Z,3896.00
2018-02-12T09:09:49.769Z,3908.00
2018-02-12T09:10:49.762Z,3968.00
2018-02-12T09:11:49.754Z,3992.00
2018-02-12T09:12:49.746Z,3884.00
2018-02-12T09:13:49.738Z,3828.00
2018-02-12T09:14:49.730Z,3764.00
2018-02-12T09:15:49.725Z,3648.00
2018-02-12T09:16:49.714Z,3572.00
2018-02-12T09:17:49.705Z,3668.00
2018-02-12T09:18:49.698Z,4052.00
2018-02-12T09:19:49.690Z,4344.00
2018-02-12T09:20:49.696Z,4648.00
2018-02-12T09:21:49.675Z,4904.00
2018-02-12T09:22:49.667Z,5144.00
2018-02-12T09:23:49.659Z,5356.00
2018-02-12T09:24:49.652Z,5596.00
2018-02-12T09:25:49.644Z,5856.00
2018-02-12T09:26:49.635Z,6104.00
2018-02-12T09:27:49.628Z,6340.00
2018-02-12T09:28:49.620Z,6576.00
2018-02-12T09:29:49.617Z,6876.00
2018-02-12T09:30:49.606Z,7264.00
2018-02-12T09:31:49.596Z,7728.00
2018-02-12T09:32:49.590Z,8280.00
2018-02-12T09:33:49.584Z,8856.00
2018-02-12T09:34:49.576Z,9464.00
2018-02-12T09:35:49.568Z,9940.00
2018-02-12T09:36:49.560Z,10300.00
2018-02-12T09:37:49.555Z,10844.00
2018-02-12T09:38:49.547Z,11360.00
2018-02-12T09:39:49.540Z,11424.00
2018-02-12T09:40:49.533Z,11484.00
2018-02-12T09:41:49.527Z,12120.00
2018-02-12T09:42:49.519Z,12772.00
2018-02-12T09:43:49.513Z,13036.00
2018-02-12T09:44:49.507Z,12888.00
2018-02-12T09:45:49.501Z,12792.00
2018-02-12T09:46:49.494Z,13124.00
2018-02-12T09:47:49.488Z,13624.00
2018-02-12T09:48:49.482Z,13496.00
2018-02-12T09:49:49.475Z,12752.00
2018-02-12T09:50:49.470Z,17152.00
2018-02-12T09:51:49.463Z,16148.00
2018-02-12T09:52:49.458Z,23552.00
2018-02-12T09:53:49.456Z,22144.00
2018-02-12T09:54:49.448Z,21312.00
2018-02-12T09:55:49.742Z,20000.00
2018-02-12T09:56:49.437Z,23552.00
2018-02-12T09:57:49.434Z,25088.00
2018-02-12T09:58:49.434Z,26592.00
2018-02-12T09:59:49.425Z,24800.00
2018-02-12T10:00:49.424Z,22080.00
2018-02-12T10:01:49.416Z,19040.00
2018-02-12T10:02:49.413Z,17792.00
2018-02-12T10:03:49.411Z,17728.00
2018-02-12T10:04:49.408Z,17568.00
2018-02-12T10:05:49.408Z,19904.00
2018-02-12T10:06:49.400Z,19776.00
2018-02-12T10:07:49.398Z,19712.00
2018-02-12T10:08:49.395Z,19456.00
2018-02-12T10:09:49.394Z,18816.00
2018-02-12T10:10:49.389Z,19328.00
2018-02-12T10:11:49.412Z,20672.00
2018-02-12T10:12:49.384Z,18912.00
2018-02-12T10:13:49.383Z,18144.00
2018-02-12T10:14:49.379Z,24064.00
2018-02-12T10:15:49.378Z,19424.00
2018-02-12T10:16:49.379Z,16524.00
2018-02-12T10:17:49.373Z,15008.00
2018-02-12T10:18:49.371Z,14452.00
2018-02-12T10:19:49.369Z,14420.00
2018-02-12T10:20:49.375Z,12468.00
2018-02-12T10:21:49.367Z,12260.00
2018-02-12T10:22:49.362Z,12416.00
2018-02-12T10:23:49.359Z,13992.00
2018-02-12T10:24:49.357Z,13768.00
2018-02-12T10:25:49.354Z,16096.00
2018-02-12T10:26:49.352Z,19680.00
2018-02-12T10:27:49.350Z,13512.00
2018-02-12T10:28:49.347Z,12908.00
2018-02-12T10:29:49.344Z,15300.00
2018-02-12T10:30:49.342Z,11672.00
2018-02-12T10:31:49.340Z,10464.00
2018-02-12T10:32:49.337Z,11176.00
2018-02-12T10:33:49.333Z,9888.00
2018-02-12T10:34:49.330Z,10576.00
2018-02-12T10:35:49.327Z,10584.00
2018-02-12T10:36:49.326Z,10504.00
2018-02-12T10:37:49.323Z,9200.00
2018-02-12T10:38:49.319Z,9752.00
2018-02-12T10:39:49.316Z,15648.00
2018-02-12T10:40:49.314Z,17632.00
2018-02-12T10:41:49.314Z,12800.00
2018-02-12T10:42:49.310Z,11160.00
2018-02-12T10:43:49.304Z,13140.00
2018-02-12T10:44:49.301Z,13872.00
2018-02-12T10:45:49.298Z,10168.00
2018-02-12T10:46:49.298Z,10260.00
2018-02-12T10:47:49.290Z,9448.00
2018-02-12T10:48:49.288Z,9904.00
2018-02-12T10:49:49.285Z,11416.00
2018-02-12T10:50:49.280Z,11684.00
2018-02-12T10:51:49.278Z,10864.00
2018-02-12T10:52:49.276Z,10344.00
2018-02-12T10:53:49.270Z,10128.00
2018-02-12T10:54:49.268Z,9596.00
2018-02-12T10:55:49.263Z,9288.00
2018-02-12T10:56:49.259Z,8964.00
2018-02-12T10:57:49.256Z,10784.00
2018-02-12T10:58:49.252Z,8924.00
2018-02-12T10:59:49.249Z,9652.00
2018-02-12T11:00:49.246Z,13776.00
2018-02-12T11:01:49.243Z,11088.00
2018-02-12T11:02:49.237Z,11080.00
2018-02-12T11:03:49.233Z,14128.00
2018-02-12T11:04:49.231Z,11992.00
2018-02-12T11:05:49.227Z,30656.00
2018-02-12T11:06:49.223Z,35360.00
2018-02-12T11:07:49.220Z,37824.00
2018-02-12T11:08:49.217Z,27168.00
2018-02-12T11:09:49.213Z,29248.00
2018-02-12T11:10:49.210Z,19872.00
2018-02-12T11:11:49.208Z,17280.00
2018-02-12T11:12:49.207Z,23264.00
2018-02-12T11:13:49.204Z,15472.00
2018-02-12T11:14:49.200Z,13908.00
2018-02-12T11:15:49.198Z,13956.00
2018-02-12T11:16:49.195Z,13216.00
2018-02-12T11:17:49.193Z,12712.00
2018-02-12T11:18:49.195Z,12036.00
2018-02-12T11:19:49.186Z,11280.00
2018-02-12T11:20:49.186Z,10764.00
2018-02-12T11:21:49.182Z,12244.00
2018-02-12T11:22:49.338Z,12748.00
2018-02-12T11:23:49.174Z,13408.00
2018-02-12T11:24:49.171Z,14016.00
2018-02-12T11:25:49.167Z,13216.00
2018-02-12T11:26:49.162Z,13320.00
2018-02-12T11:27:49.160Z,12560.00
2018-02-12T11:28:49.156Z,11648.00
2018-02-12T11:29:49.153Z,10400.00
2018-02-12T11:30:49.152Z,9892.00
2018-02-12T11:31:49.144Z,9572.00
2018-02-12T11:32:49.141Z,9604.00
2018-02-12T11:33:49.137Z,9612.00
2018-02-12T11:34:49.132Z,9548.00
2018-02-12T11:35:49.129Z,9460.00
2018-02-12T11:36:49.125Z,9380.00
2018-02-12T11:37:49.122Z,9268.00
2018-02-12T11:38:49.116Z,9056.00
2018-02-12T11:39:49.149Z,8696.00
2018-02-12T11:40:49.108Z,8456.00
2018-02-12T11:41:49.104Z,8284.00
2018-02-12T11:42:49.098Z,8084.00
2018-02-12T11:43:49.100Z,7908.00
2018-02-12T11:44:49.089Z,7840.00
2018-02-12T11:45:49.084Z,7832.00
2018-02-12T11:46:49.079Z,7840.00
2018-02-12T11:47:49.075Z,7856.00
2018-02-12T11:48:49.070Z,7912.00
2018-02-12T11:49:49.064Z,7996.00
2018-02-12T11:50:49.058Z,8108.00
2018-02-12T11:51:49.053Z,8208.00
2018-02-12T11:52:49.047Z,8300.00
2018-02-12T11:53:49.042Z,8368.00
2018-02-12T11:54:49.035Z,8432.00
2018-02-12T11:55:49.030Z,8432.00
2018-02-12T11:56:49.024Z,8328.00
2018-02-12T11:57:49.078Z,8216.00
2018-02-12T11:58:49.011Z,8200.00
2018-02-12T11:59:49.007Z,8304.00
2018-02-12T12:00:49.001Z,8372.00
2018-02-12T12:01:48.996Z,8248.00
2018-02-12T12:02:48.988Z,7968.00
2018-02-12T12:03:48.982Z,7696.00
2018-02-12T12:04:48.978Z,7532.00
2018-02-12T12:05:48.971Z,7484.00
2018-02-12T12:06:48.965Z,7524.00
2018-02-12T12:07:48.960Z,7560.00
2018-02-12T12:08:48.953Z,7600.00
2018-02-12T12:09:48.950Z,7652.00
2018-02-12T12:10:48.940Z,7736.00
2018-02-12T12:11:48.934Z,7824.00
2018-02-12T12:12:48.928Z,7936.00
2018-02-12T12:13:48.922Z,8108.00
2018-02-12T12:14:48.916Z,8368.00
2018-02-12T12:15:48.916Z,8784.00
2018-02-12T12:16:48.905Z,9264.00
2018-02-12T12:17:48.899Z,9784.00
2018-02-12T12:18:48.893Z,10172.00
2018-02-12T12:19:48.886Z,10500.00
2018-02-12T12:20:48.886Z,10892.00
2018-02-12T12:21:48.878Z,11148.00
2018-02-12T12:22:48.873Z,11364.00
2018-02-12T12:23:48.866Z,11608.00
2018-02-12T12:24:48.856Z,11548.00
2018-02-12T12:25:48.850Z,10964.00
2018-02-12T12:26:48.848Z,10628.00
2018-02-12T12:27:48.839Z,10324.00
2018-02-12T12:28:48.834Z,10040.00
2018-02-12T12:29:48.829Z,9984.00
2018-02-12T12:30:48.822Z,10044.00
2018-02-12T12:31:48.816Z,10368.00
2018-02-12T12:32:48.811Z,10592.00
2018-02-12T12:33:48.807Z,10692.00
2018-02-12T12:34:48.802Z,10376.00
2018-02-12T12:35:48.796Z,10188.00
2018-02-12T12:36:48.790Z,10072.00
2018-02-12T12:37:48.785Z,9788.00
2018-02-12T12:38:48.779Z,9532.00
2018-02-12T12:39:48.774Z,9372.00